createdAt,value
2023-06-20T00:01:52.352Z,16.15
2023-06-20T00:04:24.890Z,12.65
2023-06-20T00:06:54.840Z,13.82
2023-06-20T00:09:24.695Z,12.13
2023-06-20T00:11:54.786Z,15.05
2023-06-20T00:14:24.770Z,13.25
2023-06-20T00:17:00.770Z,13.25
2023-06-20T00:19:33.314Z,13.88
2023-06-20T00:22:04.125Z,12.70
2023-06-20T00:24:34.768Z,15.02
2023-06-20T00:27:05.111Z,13.93
2023-06-20T00:29:34.997Z,13.25
2023-06-20T00:32:04.930Z,13.57
2023-06-20T00:34:37.474Z,14.57
2023-06-20T00:37:07.641Z,15.77
2023-06-20T00:39:37.499Z,13.00
2023-06-20T00:42:08.429Z,12.80
2023-06-20T00:44:38.300Z,14.77
2023-06-20T00:47:08.380Z,17.27
2023-06-20T00:49:42.696Z,15.73
2023-06-20T00:52:12.731Z,16.10
2023-06-20T00:54:42.921Z,13.80
2023-06-20T00:57:13.582Z,16.05
2023-06-20T00:59:46.340Z,15.57
2023-06-20T01:02:16.288Z,13.80
2023-06-20T01:04:49.958Z,12.90
2023-06-20T01:07:25.545Z,12.95
2023-06-20T01:10:03.678Z,14.88
2023-06-20T01:12:39.920Z,16.05
2023-06-20T01:15:17.965Z,15.77
2023-06-20T01:17:52.637Z,17.80
2023-06-20T01:20:30.433Z,15.93
2023-06-20T01:23:07.619Z,14.40
2023-06-20T01:25:47.729Z,18.80
2023-06-20T01:28:25.615Z,17.40
2023-06-20T01:31:04.609Z,16.35
2023-06-20T01:33:39.694Z,16.73
2023-06-20T01:36:12.093Z,20.98
2023-06-20T01:38:49.459Z,20.80
2023-06-20T01:41:23.524Z,19.25
2023-06-20T01:43:56.594Z,19.20
2023-06-20T01:46:27.939Z,19.63
2023-06-20T01:48:59.189Z,19.30
2023-06-20T01:51:30.617Z,20.15
2023-06-20T01:54:07.684Z,17.92
2023-06-20T01:56:38.890Z,19.13
2023-06-20T01:59:12.549Z,21.08
2023-06-20T02:01:44.478Z,18.40
2023-06-20T02:04:15.373Z,20.98
2023-06-20T02:06:47.958Z,21.60
2023-06-20T02:09:21.696Z,17.25
2023-06-20T02:11:52.275Z,15.75
2023-06-20T02:14:22.486Z,19.15
2023-06-20T02:16:54.391Z,21.73
2023-06-20T02:19:24.362Z,21.02
2023-06-20T02:21:54.496Z,17.25
2023-06-20T02:24:30.769Z,18.15
2023-06-20T02:27:03.479Z,18.77
2023-06-20T02:29:39.595Z,16.63
2023-06-20T02:32:14.976Z,15.50
2023-06-20T02:34:48.845Z,16.75
2023-06-20T02:37:20.954Z,16.90
2023-06-20T02:39:53.479Z,16.90
2023-06-20T02:42:24.873Z,14.95
2023-06-20T02:44:54.782Z,15.95
2023-06-20T02:47:34.791Z,16.27
2023-06-20T02:50:11.401Z,16.80
2023-06-20T02:52:51.389Z,15.65
2023-06-20T02:55:36.190Z,12.70
2023-06-20T02:58:14.343Z,15.52
2023-06-20T03:00:47.488Z,14.95
2023-06-20T03:03:22.739Z,13.50
2023-06-20T03:05:58.297Z,12.77
2023-06-20T03:08:32.132Z,14.75
2023-06-20T03:11:05.094Z,16.35
2023-06-20T03:13:35.374Z,14.57
2023-06-20T03:16:09.174Z,14.77
2023-06-20T03:18:39.237Z,13.00
2023-06-20T03:21:23.427Z,14.23
2023-06-20T03:23:57.790Z,14.02
2023-06-20T03:26:30.624Z,17.13
2023-06-20T03:29:00.523Z,15.02
2023-06-20T03:31:30.702Z,18.60
2023-06-20T03:34:00.669Z,17.65
2023-06-20T03:36:30.572Z,17.88
2023-06-20T03:39:04.328Z,16.90
2023-06-20T03:41:36.872Z,15.27
2023-06-20T03:44:06.917Z,15.50
2023-06-20T03:46:36.853Z,14.68
2023-06-20T03:49:06.791Z,16.13
2023-06-20T03:51:36.662Z,17.90
2023-06-20T03:54:06.778Z,19.20
2023-06-20T03:56:40.475Z,16.55
2023-06-20T03:59:10.338Z,17.02
2023-06-20T04:01:40.256Z,19.65
2023-06-20T04:04:15.355Z,20.25
2023-06-20T04:06:50.807Z,19.52
2023-06-20T04:09:21.290Z,16.60
2023-06-20T04:11:53.813Z,15.43
2023-06-20T04:14:23.849Z,16.05
2023-06-20T04:16:55.195Z,18.13
2023-06-20T04:19:26.717Z,15.90
2023-06-20T04:21:56.576Z,13.20
2023-06-20T04:24:26.491Z,14.93
2023-06-20T04:26:59.045Z,15.90
2023-06-20T04:29:30.803Z,16.30
2023-06-20T04:32:00.955Z,14.00
2023-06-20T04:34:30.871Z,14.52
2023-06-20T04:37:03.286Z,17.77
2023-06-20T04:39:33.211Z,17.85
2023-06-20T04:42:05.844Z,19.90
2023-06-20T04:44:35.886Z,21.45
2023-06-20T04:47:07.270Z,21.20
2023-06-20T04:49:41.470Z,18.85
2023-06-20T04:52:12.450Z,20.85
2023-06-20T04:54:44.028Z,22.10
2023-06-20T04:57:16.565Z,17.00
2023-06-20T04:59:48.086Z,15.90
2023-06-20T05:02:18.039Z,17.83
2023-06-20T05:04:48.016Z,21.20
2023-06-20T05:07:17.877Z,16.88
2023-06-20T05:09:47.882Z,19.48
2023-06-20T05:12:24.500Z,15.65
2023-06-20T05:14:56.886Z,17.02
2023-06-20T05:17:26.794Z,16.60
2023-06-20T05:19:57.342Z,19.20
2023-06-20T05:22:27.248Z,14.82
2023-06-20T05:24:57.083Z,18.95
2023-06-20T05:27:29.600Z,17.02
2023-06-20T05:29:59.442Z,14.38
2023-06-20T05:32:29.502Z,13.88
2023-06-20T05:35:00.198Z,18.02
2023-06-20T05:37:30.795Z,15.73
2023-06-20T05:40:01.696Z,14.65
2023-06-20T05:42:34.528Z,16.92
2023-06-20T05:45:04.591Z,17.20
2023-06-20T05:47:34.466Z,18.83
2023-06-20T05:50:06.063Z,14.30
2023-06-20T05:52:37.381Z,15.52
2023-06-20T05:55:08.405Z,14.65
2023-06-20T05:57:41.194Z,13.13
2023-06-20T06:00:15.295Z,13.52
2023-06-20T06:02:46.751Z,14.45
2023-06-20T06:05:16.713Z,13.27
2023-06-20T06:07:46.585Z,13.93
2023-06-20T06:10:16.487Z,12.73
2023-06-20T06:12:49.003Z,11.48
2023-06-20T06:15:18.916Z,11.60
2023-06-20T06:17:49.645Z,14.20
2023-06-20T06:20:20.574Z,13.00
2023-06-20T06:22:50.474Z,11.00
2023-06-20T06:25:20.563Z,10.55
2023-06-20T06:27:55.959Z,11.18
2023-06-20T06:30:27.687Z,10.32
2023-06-20T06:32:59.971Z,9.10
2023-06-20T06:35:30.935Z,10.68
2023-06-20T06:38:01.620Z,10.82
2023-06-20T06:40:31.526Z,9.63
2023-06-20T06:43:04.107Z,8.95
2023-06-20T06:45:34.398Z,10.70
2023-06-20T06:48:04.226Z,11.48
2023-06-20T06:50:34.093Z,10.80
2023-06-20T06:53:04.019Z,13.32
2023-06-20T06:55:33.861Z,14.15
2023-06-20T06:58:06.394Z,12.48
2023-06-20T07:00:36.958Z,14.75
2023-06-20T07:03:08.116Z,13.65
2023-06-20T07:05:38.108Z,12.98
2023-06-20T07:08:08.376Z,10.77
2023-06-20T07:10:38.272Z,10.77
2023-06-20T07:13:10.730Z,13.63
2023-06-20T07:15:43.663Z,12.43
2023-06-20T07:18:16.469Z,15.30
2023-06-20T07:20:48.089Z,12.55
2023-06-20T07:23:17.993Z,13.68
2023-06-20T07:25:47.878Z,15.73
2023-06-20T07:28:21.827Z,13.20
2023-06-20T07:30:51.824Z,12.38
2023-06-20T07:33:22.162Z,12.80
2023-06-20T07:35:52.013Z,15.60
2023-06-20T07:38:25.491Z,13.68
2023-06-20T07:40:58.506Z,15.45
2023-06-20T07:43:34.053Z,14.27
2023-06-20T07:46:03.973Z,15.45
2023-06-20T07:48:33.914Z,15.88
2023-06-20T07:51:04.513Z,15.05
2023-06-20T07:53:34.478Z,16.55
2023-06-20T07:56:04.334Z,15.05
2023-06-20T07:58:36.863Z,16.45
2023-06-20T08:01:06.867Z,14.45
2023-06-20T08:03:36.836Z,15.05
2023-06-20T08:06:07.672Z,16.02
2023-06-20T08:08:38.639Z,17.15
2023-06-20T08:11:08.870Z,14.40
2023-06-20T08:13:41.690Z,14.93
2023-06-20T08:16:11.625Z,14.15
2023-06-20T08:18:41.550Z,17.10
2023-06-20T08:21:11.632Z,14.65
2023-06-20T08:23:41.506Z,15.73
2023-06-20T08:26:15.953Z,17.13
2023-06-20T08:28:48.390Z,16.23
2023-06-20T08:31:18.546Z,15.38
2023-06-20T08:33:48.479Z,14.85
2023-06-20T08:36:21.996Z,14.68
2023-06-20T08:38:52.353Z,12.63
2023-06-20T08:41:22.710Z,17.95
2023-06-20T08:43:55.377Z,15.30
2023-06-20T08:46:25.933Z,15.02
2023-06-20T08:48:56.723Z,13.55
2023-06-20T08:51:30.856Z,15.63
2023-06-20T08:54:02.745Z,15.57
2023-06-20T08:56:32.615Z,15.05
2023-06-20T08:59:06.330Z,12.98
2023-06-20T09:01:36.985Z,11.70
2023-06-20T09:04:07.056Z,10.63
2023-06-20T09:06:41.274Z,14.23
2023-06-20T09:09:18.821Z,16.30
2023-06-20T09:11:57.956Z,12.35
2023-06-20T09:14:34.165Z,12.68
2023-06-20T09:17:04.663Z,13.00
2023-06-20T09:19:45.521Z,13.23
2023-06-20T09:22:16.458Z,12.05
2023-06-20T09:24:47.673Z,11.07
2023-06-20T09:27:17.615Z,11.00
2023-06-20T09:30:02.602Z,12.35
2023-06-20T09:32:38.697Z,11.82
2023-06-20T09:35:10.418Z,12.50
2023-06-20T09:37:41.893Z,9.73
2023-06-20T09:40:16.138Z,11.07
2023-06-20T09:42:47.412Z,9.52
2023-06-20T09:45:20.967Z,13.93
2023-06-20T09:47:52.095Z,12.15
2023-06-20T09:50:28.412Z,11.65
2023-06-20T09:53:05.033Z,11.48
2023-06-20T09:55:38.215Z,12.05
2023-06-20T09:58:11.199Z,11.65
2023-06-20T10:00:46.900Z,11.45
2023-06-20T10:03:17.285Z,14.00
2023-06-20T10:05:48.478Z,13.10
2023-06-20T10:08:20.303Z,12.00
2023-06-20T10:10:50.145Z,11.60
2023-06-20T10:13:22.608Z,12.52
2023-06-20T10:15:59.121Z,10.60
2023-06-20T10:18:44.761Z,10.20
2023-06-20T10:21:17.919Z,11.98
2023-06-20T10:23:48.443Z,11.40
2023-06-20T10:26:18.556Z,9.48
2023-06-20T10:29:01.563Z,9.77
2023-06-20T10:31:58.571Z,10.13
2023-06-20T10:34:32.687Z,13.35
2023-06-20T10:37:14.943Z,11.23
2023-06-20T10:39:56.859Z,11.35
2023-06-20T10:42:40.982Z,11.80
2023-06-20T10:45:24.553Z,10.38
2023-06-20T10:47:58.072Z,8.85
2023-06-20T10:50:28.220Z,10.80
2023-06-20T10:52:58.315Z,8.50
2023-06-20T10:55:30.444Z,8.82
2023-06-20T10:58:01.396Z,9.85
2023-06-20T11:00:31.410Z,8.15
2023-06-20T11:03:03.963Z,8.88
2023-06-20T11:05:34.933Z,10.00
2023-06-20T11:08:08.732Z,8.38
2023-06-20T11:10:42.729Z,9.73
2023-06-20T11:13:12.604Z,10.52
2023-06-20T11:15:42.593Z,9.02
2023-06-20T11:18:15.214Z,8.45
2023-06-20T11:20:46.413Z,8.80
2023-06-20T11:23:16.959Z,7.07
2023-06-20T11:25:47.186Z,7.13
2023-06-20T11:28:25.692Z,6.55
2023-06-20T11:30:55.688Z,6.80
2023-06-20T11:33:31.851Z,7.80
2023-06-20T11:36:01.725Z,6.20
2023-06-20T11:38:33.526Z,6.13
2023-06-20T11:41:06.020Z,5.88
2023-06-20T11:43:40.574Z,7.55
2023-06-20T11:46:11.771Z,6.93
2023-06-20T11:48:53.429Z,6.43
2023-06-20T11:51:25.701Z,7.72
2023-06-20T11:54:04.158Z,6.70
2023-06-20T11:56:34.188Z,7.07
2023-06-20T11:59:04.092Z,7.47
2023-06-20T12:01:34.194Z,8.68
2023-06-20T12:04:14.228Z,7.78
2023-06-20T12:06:45.419Z,8.35
2023-06-20T12:09:28.840Z,7.13
2023-06-20T12:11:59.616Z,7.18
2023-06-20T12:14:29.620Z,6.88
2023-06-20T12:17:04.651Z,8.52
2023-06-20T12:19:38.035Z,7.60
2023-06-20T12:22:08.328Z,7.40
2023-06-20T12:24:38.290Z,8.82
2023-06-20T12:27:08.712Z,7.90
2023-06-20T12:29:39.608Z,7.05
2023-06-20T12:32:11.170Z,7.00
2023-06-20T12:34:43.719Z,9.85
2023-06-20T12:37:14.948Z,7.60
2023-06-20T12:39:44.769Z,7.55
2023-06-20T12:42:17.483Z,8.90
2023-06-20T12:44:47.336Z,8.05
2023-06-20T12:47:17.697Z,7.95
2023-06-20T12:49:51.021Z,8.20
2023-06-20T12:52:21.293Z,9.43
2023-06-20T12:54:51.200Z,10.77
2023-06-20T12:57:21.787Z,7.95
2023-06-20T12:59:51.696Z,11.27
2023-06-20T13:02:22.177Z,11.15
2023-06-20T13:04:55.895Z,8.43
2023-06-20T13:07:27.161Z,7.63
2023-06-20T13:09:57.106Z,8.95
2023-06-20T13:12:27.712Z,11.55
2023-06-20T13:15:07.063Z,12.07
2023-06-20T13:17:39.966Z,12.23
2023-06-20T13:20:14.095Z,11.18
2023-06-20T13:22:43.965Z,12.13
2023-06-20T13:25:13.922Z,13.65
2023-06-20T13:27:43.860Z,11.10
2023-06-20T13:30:17.385Z,12.85
2023-06-20T13:32:55.667Z,11.65
2023-06-20T13:35:28.211Z,12.52
2023-06-20T13:37:58.110Z,13.15
2023-06-20T13:40:31.873Z,13.90
2023-06-20T13:43:12.556Z,15.18
2023-06-20T13:45:44.817Z,14.63
2023-06-20T13:48:16.555Z,12.77
2023-06-20T13:50:52.084Z,13.75
2023-06-20T13:53:23.506Z,11.85
2023-06-20T13:55:53.367Z,12.18
2023-06-20T13:58:25.626Z,12.68
2023-06-20T14:00:56.840Z,12.98
2023-06-20T14:03:26.719Z,13.70
2023-06-20T14:05:59.435Z,17.73
2023-06-20T14:08:29.643Z,14.10
2023-06-20T14:10:59.551Z,15.15
2023-06-20T14:13:29.449Z,12.65
2023-06-20T14:15:59.392Z,15.38
2023-06-20T14:18:29.496Z,16.50
2023-06-20T14:21:06.109Z,14.73
2023-06-20T14:23:35.966Z,15.57
2023-06-20T14:26:05.863Z,16.08
2023-06-20T14:28:36.056Z,15.05
2023-06-20T14:31:05.938Z,15.32
2023-06-20T14:33:35.814Z,16.67
2023-06-20T14:36:08.660Z,15.00
2023-06-20T14:38:42.552Z,14.60
2023-06-20T14:41:14.269Z,15.63
2023-06-20T14:43:44.129Z,14.35
2023-06-20T14:46:14.464Z,13.55
2023-06-20T14:48:44.378Z,14.35
2023-06-20T14:51:16.974Z,14.95
2023-06-20T14:53:47.123Z,14.93
2023-06-20T14:56:16.963Z,15.10
2023-06-20T14:58:46.796Z,13.20
2023-06-20T15:01:16.736Z,14.52
2023-06-20T15:03:46.669Z,13.70
2023-06-20T15:06:20.135Z,12.88
2023-06-20T15:08:49.994Z,12.95
2023-06-20T15:11:19.951Z,11.60
2023-06-20T15:13:50.126Z,8.85
2023-06-20T15:16:20.318Z,10.25
2023-06-20T15:18:50.256Z,9.35
2023-06-20T15:21:22.871Z,9.25
2023-06-20T15:23:52.770Z,12.57
2023-06-20T15:26:23.175Z,10.27
2023-06-20T15:28:54.356Z,10.90
2023-06-20T15:31:25.365Z,10.18
2023-06-20T15:33:55.548Z,12.35
2023-06-20T15:36:28.184Z,11.57
2023-06-20T15:38:58.029Z,10.98
2023-06-20T15:41:27.979Z,11.85
2023-06-20T15:43:57.843Z,12.15
2023-06-20T15:46:37.254Z,12.77
2023-06-20T15:49:12.942Z,12.13
2023-06-20T15:51:45.432Z,16.02
2023-06-20T15:54:15.333Z,12.88
2023-06-20T15:56:45.240Z,12.45
2023-06-20T15:59:18.186Z,11.82
2023-06-20T16:01:48.187Z,12.25
2023-06-20T16:04:18.355Z,12.95
2023-06-20T16:06:50.846Z,11.98
2023-06-20T16:09:21.187Z,11.30
2023-06-20T16:11:59.381Z,12.65
2023-06-20T16:14:29.305Z,13.20
2023-06-20T16:16:59.185Z,12.80
2023-06-20T16:19:29.049Z,12.80
2023-06-20T16:22:01.544Z,10.95
2023-06-20T16:24:31.439Z,9.95
2023-06-20T16:27:04.780Z,12.20
2023-06-20T16:29:34.636Z,12.98
2023-06-20T16:32:08.917Z,12.98
2023-06-20T16:34:38.920Z,12.40
2023-06-20T16:37:14.026Z,13.38
2023-06-20T16:39:44.179Z,12.70
2023-06-20T16:42:16.343Z,10.90
2023-06-20T16:44:46.586Z,11.23
2023-06-20T16:47:20.182Z,12.18
2023-06-20T16:49:50.070Z,10.13
2023-06-20T16:52:26.428Z,10.70
2023-06-20T16:54:56.319Z,9.77
2023-06-20T16:57:26.231Z,10.60
2023-06-20T16:59:56.091Z,11.00
2023-06-20T17:02:26.123Z,11.32
2023-06-20T17:04:56.097Z,10.60
2023-06-20T17:07:28.577Z,10.18
2023-06-20T17:09:58.456Z,9.90
2023-06-20T17:12:28.430Z,9.50
2023-06-20T17:14:58.490Z,9.35
2023-06-20T17:17:28.467Z,9.77
2023-06-20T17:19:58.369Z,9.27
2023-06-20T17:22:31.588Z,10.38
2023-06-20T17:25:01.595Z,8.30
2023-06-20T17:27:31.452Z,9.02
2023-06-20T17:30:03.031Z,8.50
2023-06-20T17:32:33.157Z,8.15
2023-06-20T17:35:03.027Z,9.35
2023-06-20T17:37:35.712Z,8.77
2023-06-20T17:40:05.661Z,8.60
2023-06-20T17:42:35.675Z,9.35
2023-06-20T17:45:09.631Z,9.95
2023-06-20T17:47:39.555Z,9.35
2023-06-20T17:50:10.144Z,9.15
2023-06-20T17:52:42.716Z,10.25
2023-06-20T17:55:13.039Z,9.02
2023-06-20T17:57:58.637Z,10.05
2023-06-20T18:00:31.703Z,8.85
2023-06-20T18:03:01.955Z,8.43
2023-06-20T18:05:33.089Z,8.82
2023-06-20T18:08:06.304Z,8.75
2023-06-20T18:10:36.145Z,10.82
2023-06-20T18:13:06.421Z,6.05
2023-06-20T18:15:36.252Z,6.03
2023-06-20T18:18:06.243Z,7.88
2023-06-20T18:20:36.221Z,5.93
2023-06-20T18:23:10.499Z,4.88
2023-06-20T18:25:41.150Z,5.25
2023-06-20T18:28:11.005Z,7.00
2023-06-20T18:30:41.878Z,7.57
2023-06-20T18:33:11.754Z,6.38
2023-06-20T18:35:41.696Z,8.95
2023-06-20T18:38:16.227Z,13.60
2023-06-20T18:40:46.108Z,9.88
2023-06-20T18:43:16.326Z,7.50
2023-06-20T18:45:46.991Z,8.38
2023-06-20T18:48:18.108Z,11.50
2023-06-20T18:50:48.449Z,7.38
2023-06-20T18:53:20.893Z,8.45
2023-06-20T18:55:50.747Z,10.30
2023-06-20T18:58:21.318Z,10.02
2023-06-20T19:00:52.295Z,8.80
2023-06-20T19:03:22.320Z,8.98
2023-06-20T19:05:52.228Z,8.48
2023-06-20T19:08:24.835Z,6.07
2023-06-20T19:10:55.416Z,7.97
2023-06-20T19:13:26.946Z,6.68
2023-06-20T19:15:56.806Z,6.10
2023-06-20T19:18:26.728Z,5.93
2023-06-20T19:20:57.078Z,8.80
2023-06-20T19:23:29.708Z,6.38
2023-06-20T19:25:59.554Z,5.30
2023-06-20T19:28:31.367Z,5.60
2023-06-20T19:31:01.339Z,4.82
2023-06-20T19:33:31.378Z,5.53
2023-06-20T19:36:01.343Z,5.38
2023-06-20T19:38:35.982Z,6.40
2023-06-20T19:41:08.495Z,5.25
2023-06-20T19:43:38.574Z,4.70
2023-06-20T19:46:08.505Z,4.93
2023-06-20T19:48:40.349Z,5.18
2023-06-20T19:51:11.157Z,4.45
2023-06-20T19:53:43.592Z,4.50
2023-06-20T19:56:13.581Z,4.55
2023-06-20T19:58:45.342Z,4.38
2023-06-20T20:01:15.227Z,4.80
2023-06-20T20:03:45.279Z,3.53
2023-06-20T20:06:15.157Z,4.40
2023-06-20T20:08:47.597Z,6.22
2023-06-20T20:11:17.557Z,3.88
2023-06-20T20:13:47.405Z,4.80
2023-06-20T20:16:17.541Z,5.32
2023-06-20T20:18:47.420Z,5.85
2023-06-20T20:21:18.963Z,5.65
2023-06-20T20:23:51.441Z,5.32
2023-06-20T20:26:22.595Z,5.15
2023-06-20T20:28:53.711Z,5.20
2023-06-20T20:31:23.774Z,5.78
2023-06-20T20:33:54.162Z,6.30
2023-06-20T20:36:24.234Z,5.60
2023-06-20T20:38:56.707Z,7.28
2023-06-20T20:41:26.562Z,5.75
2023-06-20T20:43:56.428Z,6.20
2023-06-20T20:46:26.425Z,7.60
2023-06-20T20:48:57.542Z,6.22
2023-06-20T20:51:28.177Z,6.13
2023-06-20T20:54:00.672Z,6.15
2023-06-20T20:56:30.520Z,5.60
2023-06-20T20:59:00.411Z,7.32
2023-06-20T21:01:31.479Z,5.03
2023-06-20T21:04:01.407Z,5.20
2023-06-20T21:06:31.267Z,5.85
2023-06-20T21:09:03.712Z,6.40
2023-06-20T21:11:33.609Z,5.88
2023-06-20T21:14:03.530Z,6.25
2023-06-20T21:16:33.562Z,6.10
2023-06-20T21:19:03.433Z,6.88
2023-06-20T21:21:35.399Z,6.20
2023-06-20T21:24:08.530Z,6.47
2023-06-20T21:26:38.425Z,6.60
2023-06-20T21:29:08.336Z,6.25
2023-06-20T21:31:38.244Z,7.80
2023-06-20T21:34:08.090Z,6.20
2023-06-20T21:36:38.065Z,7.03
2023-06-20T21:39:10.658Z,7.18
2023-06-20T21:41:40.567Z,7.07
2023-06-20T21:44:10.431Z,6.05
2023-06-20T21:46:40.446Z,7.75
2023-06-20T21:49:10.639Z,7.05
2023-06-20T21:51:40.508Z,6.47
2023-06-20T21:54:13.027Z,7.70
2023-06-20T21:56:43.089Z,6.78
2023-06-20T21:59:13.175Z,8.02
2023-06-20T22:01:43.054Z,8.18
2023-06-20T22:04:12.990Z,7.18
2023-06-20T22:06:42.902Z,8.05
2023-06-20T22:09:15.515Z,8.15
2023-06-20T22:11:45.383Z,7.70
2023-06-20T22:14:15.289Z,8.10
2023-06-20T22:16:45.479Z,8.50
2023-06-20T22:19:17.312Z,8.57
2023-06-20T22:21:47.292Z,8.63
2023-06-20T22:24:19.813Z,8.13
2023-06-20T22:26:51.067Z,7.97
2023-06-20T22:29:20.991Z,7.70
2023-06-20T22:31:51.025Z,7.38
2023-06-20T22:34:20.889Z,7.85
2023-06-20T22:36:51.129Z,7.97
2023-06-20T22:39:23.594Z,8.73
2023-06-20T22:41:53.536Z,7.88
2023-06-20T22:44:23.388Z,7.63
2023-06-20T22:46:55.942Z,8.32
2023-06-20T22:49:25.904Z,7.85
2023-06-20T22:51:58.132Z,7.95
2023-06-20T22:54:30.917Z,8.95
2023-06-20T22:57:00.870Z,8.70
2023-06-20T22:59:32.346Z,7.82
2023-06-20T23:02:02.320Z,8.40
2023-06-20T23:04:34.035Z,8.82
2023-06-20T23:07:04.026Z,7.80
2023-06-20T23:09:36.529Z,8.50
2023-06-20T23:12:07.148Z,8.77
2023-06-20T23:14:38.234Z,9.32
2023-06-20T23:17:08.262Z,8.43
2023-06-20T23:19:38.121Z,8.52
2023-06-20T23:22:11.394Z,7.72
2023-06-20T23:24:43.947Z,12.05
2023-06-20T23:27:13.933Z,8.77
2023-06-20T23:29:47.900Z,9.02
2023-06-20T23:32:20.306Z,8.57
2023-06-20T23:34:50.325Z,8.90
2023-06-20T23:37:21.072Z,9.10
2023-06-20T23:39:53.536Z,8.25
2023-06-20T23:42:25.424Z,8.63
2023-06-20T23:44:56.073Z,9.32
2023-06-20T23:47:28.801Z,8.68
2023-06-20T23:49:58.725Z,8.70
2023-06-20T23:52:28.570Z,9.38
2023-06-20T23:55:01.029Z,8.30
2023-06-20T23:57:34.687Z,7.82
